Time;durP1;ratioP1;P1;durP2;ratioP2;P2;SDS_P1;SDS_P2;PMS_P1;PMS_P2;Temp;Humidity;BMP_temperature;BMP_pressure;BME280_temperature;BME280_humidity;BME280_pressure;Samples;Min_cycle;Max_cycle;Signal;HPM_P1;HPM_P2
2022/10/10 00:00:28;;;;;;;;;;;11.20;99.90;;;;;;12420350;28;19930;-79
2022/10/10 00:06:29;;;;;;;;;;;11.20;99.90;;;;;;12434563;28;19948;-79
2022/10/10 00:12:34;;;;;;;;;;;11.20;99.90;;;;;;12420663;28;19929;-79
2022/10/10 00:18:36;;;;;;;;;;;11.10;99.90;;;;;;12423581;28;19926;-80
2022/10/10 00:24:37;;;;;;;;;;;11.00;99.90;;;;;;12427963;28;19926;-80
2022/10/10 00:30:39;;;;;;;;;;;11.10;99.90;;;;;;12415418;28;20381;-80
2022/10/10 00:36:40;;;;;;;;;;;11.00;99.90;;;;;;12417297;28;20377;-79
2022/10/10 00:42:42;;;;;;;;;;;11.00;99.90;;;;;;12403972;28;19956;-80
2022/10/10 00:48:44;;;;;;;;;;;10.90;99.90;;;;;;12415778;28;19929;-79
2022/10/10 00:54:46;;;;;;;;;;;10.80;99.90;;;;;;12396317;28;20405;-80
2022/10/10 01:00:48;;;;;;;;;;;10.90;99.90;;;;;;12401500;28;19932;-79
2022/10/10 01:06:49;;;;;;;;;;;10.80;99.90;;;;;;12403017;28;19937;-80
2022/10/10 01:13:15;;;;;;;;;;;10.80;99.90;;;;;;12422766;28;19936;-79
2022/10/10 01:19:16;;;;;;;;;;;10.70;99.90;;;;;;12423515;28;20289;-80
2022/10/10 01:25:27;;;;;;;;;;;10.60;99.90;;;;;;12431091;28;19926;-79
2022/10/10 01:31:33;;;;;;;;;;;10.70;99.90;;;;;;12422015;28;20297;-80
2022/10/10 01:37:58;;;;;;;;;;;10.60;99.90;;;;;;12408762;28;19925;-79
2022/10/10 01:44:00;;;;;;;;;;;10.60;99.90;;;;;;12403068;28;20412;-79
2022/10/10 01:50:04;;;;;;;;;;;10.50;99.90;;;;;;12426290;28;19926;-80
2022/10/10 01:56:08;;;;;;;;;;;10.50;99.90;;;;;;12418586;28;19925;-81
2022/10/10 02:02:29;;;;;;;;;;;10.50;99.90;;;;;;12441892;28;19925;-80
2022/10/10 02:08:32;;;;;;;;;;;10.40;99.90;;;;;;12432693;28;20297;-80
2022/10/10 02:14:39;;;;;;;;;;;10.40;99.90;;;;;;12427469;28;19964;-80
2022/10/10 02:20:42;;;;;;;;;;;10.40;99.90;;;;;;12432174;28;19933;-79
2022/10/10 02:26:45;;;;;;;;;;;10.30;99.90;;;;;;12431843;28;19930;-80
2022/10/10 02:32:59;;;;;;;;;;;10.30;99.90;;;;;;12418316;28;19933;-79
2022/10/10 02:39:01;;;;;;;;;;;10.20;99.90;;;;;;12432182;28;19940;-80
2022/10/10 02:45:03;;;;;;;;;;;10.10;99.90;;;;;;12425009;28;19932;-80
2022/10/10 02:51:06;;;;;;;;;;;10.20;99.90;;;;;;12417362;28;19929;-80
2022/10/10 02:57:07;;;;;;;;;;;10.20;99.90;;;;;;12433125;28;19925;-81
2022/10/10 03:03:09;;;;;;;;;;;10.10;99.90;;;;;;12424050;28;19925;-80
2022/10/10 03:09:11;;;;;;;;;;;10.10;99.90;;;;;;12423523;28;19934;-80
2022/10/10 03:15:12;;;;;;;;;;;10.10;99.90;;;;;;12414959;28;19932;-79
2022/10/10 03:21:14;;;;;;;;;;;10.10;99.90;;;;;;12419237;28;19933;-80
2022/10/10 03:27:16;;;;;;;;;;;10.00;99.90;;;;;;12423483;28;19926;-80
2022/10/10 03:33:18;;;;;;;;;;;10.10;99.90;;;;;;12414473;28;19932;-80
2022/10/10 03:39:20;;;;;;;;;;;10.10;99.90;;;;;;12418871;28;19930;-80
2022/10/10 03:45:22;;;;;;;;;;;10.00;99.90;;;;;;12413025;28;20016;-80
2022/10/10 03:51:23;;;;;;;;;;;10.00;99.90;;;;;;12411809;28;19926;-80
2022/10/10 03:57:25;;;;;;;;;;;9.90;99.90;;;;;;12426024;28;20000;-80
2022/10/10 04:03:28;;;;;;;;;;;10.00;99.90;;;;;;12414156;28;19983;-80
2022/10/10 04:09:29;;;;;;;;;;;10.00;99.90;;;;;;12418320;28;19979;-80
2022/10/10 04:15:31;;;;;;;;;;;10.00;99.90;;;;;;12414923;28;19933;-80
2022/10/10 04:21:33;;;;;;;;;;;10.10;99.90;;;;;;12414877;28;19930;-81
2022/10/10 04:27:35;;;;;;;;;;;10.10;99.90;;;;;;12426182;28;19926;-79
2022/10/10 04:33:37;;;;;;;;;;;10.10;99.90;;;;;;12444868;28;19930;-80
2022/10/10 04:39:39;;;;;;;;;;;10.10;99.90;;;;;;12456321;28;19933;-80
2022/10/10 04:45:40;;;;;;;;;;;10.20;99.90;;;;;;12449999;28;19933;-80
2022/10/10 04:51:42;;;;;;;;;;;10.10;99.90;;;;;;12434731;28;19934;-79
2022/10/10 04:57:44;;;;;;;;;;;10.30;99.90;;;;;;12470844;28;19932;-80
2022/10/10 05:03:45;;;;;;;;;;;9.80;99.90;;;;;;12444301;28;19926;-80
2022/10/10 05:09:47;;;;;;;;;;;9.60;99.90;;;;;;12453419;28;20385;-80
2022/10/10 05:15:50;;;;;;;;;;;9.30;99.90;;;;;;12447967;28;19925;-80
2022/10/10 05:21:51;;;;;;;;;;;9.10;99.90;;;;;;12465185;28;19929;-79
2022/10/10 05:27:53;;;;;;;;;;;9.00;99.90;;;;;;12465318;28;19929;-79
2022/10/10 05:33:55;;;;;;;;;;;9.00;99.90;;;;;;12482736;28;19929;-79
2022/10/10 05:39:56;;;;;;;;;;;8.80;99.90;;;;;;12468619;28;19936;-79
2022/10/10 05:45:58;;;;;;;;;;;8.80;99.90;;;;;;12479433;28;19933;-80
2022/10/10 05:52:00;;;;;;;;;;;8.90;99.90;;;;;;12523143;28;19920;-80
2022/10/10 05:58:01;;;;;;;;;;;8.70;99.90;;;;;;12509900;28;19956;-80
2022/10/10 06:04:03;;;;;;;;;;;8.60;99.90;;;;;;12534859;28;19945;-79
2022/10/10 06:10:05;;;;;;;;;;;8.60;99.90;;;;;;12524075;28;19933;-81
2022/10/10 06:16:07;;;;;;;;;;;8.70;99.90;;;;;;12425318;28;20030;-80
2022/10/10 06:22:08;;;;;;;;;;;8.60;99.90;;;;;;12478571;28;19926;-80
2022/10/10 06:28:10;;;;;;;;;;;8.60;99.90;;;;;;12483759;28;19925;-81
2022/10/10 06:34:12;;;;;;;;;;;8.50;99.90;;;;;;12472815;28;20300;-79
2022/10/10 06:40:14;;;;;;;;;;;8.50;99.90;;;;;;12465407;28;20271;-80
2022/10/10 06:46:16;;;;;;;;;;;8.50;99.90;;;;;;12464101;28;20381;-80
2022/10/10 06:52:18;;;;;;;;;;;8.90;99.90;;;;;;12455086;28;19925;-79
2022/10/10 06:58:21;;;;;;;;;;;9.10;99.90;;;;;;12458249;28;20288;-80
2022/10/10 07:04:22;;;;;;;;;;;9.10;99.90;;;;;;12471264;28;19940;-79
2022/10/10 07:10:24;;;;;;;;;;;9.10;99.90;;;;;;12464613;28;20270;-79
2022/10/10 07:16:26;;;;;;;;;;;9.00;99.90;;;;;;12469545;28;20008;-79
2022/10/10 07:22:28;;;;;;;;;;;9.10;99.90;;;;;;12475074;28;19929;-79
2022/10/10 07:28:30;;;;;;;;;;;9.20;99.90;;;;;;12471650;28;19925;-80
2022/10/10 07:34:32;;;;;;;;;;;9.50;99.90;;;;;;12447234;28;19972;-80
2022/10/10 07:40:34;;;;;;;;;;;9.60;99.90;;;;;;12476185;28;20150;-81
2022/10/10 07:46:35;;;;;;;;;;;9.80;99.90;;;;;;12448521;28;19929;-80
2022/10/10 07:52:37;;;;;;;;;;;10.00;99.90;;;;;;12474091;28;19932;-80
2022/10/10 07:58:39;;;;;;;;;;;10.20;99.90;;;;;;12462021;28;20340;-80
2022/10/10 08:04:41;;;;;;;;;;;10.40;99.90;;;;;;12461366;28;19929;-80
2022/10/10 08:10:43;;;;;;;;;;;10.60;99.90;;;;;;12460101;28;19932;-81
2022/10/10 08:16:45;;;;;;;;;;;10.90;99.90;;;;;;12469873;28;19925;-80
2022/10/10 08:22:47;;;;;;;;;;;11.10;99.90;;;;;;12461840;28;19925;-80
2022/10/10 08:28:49;;;;;;;;;;;11.60;99.90;;;;;;12475121;28;20385;-80
2022/10/10 08:34:51;;;;;;;;;;;12.10;99.90;;;;;;12465986;28;19929;-80
2022/10/10 08:40:55;;;;;;;;;;;12.50;99.90;;;;;;12447393;28;19951;-80
2022/10/10 08:47:09;;;;;;;;;;;12.80;99.90;;;;;;12462938;28;19929;-80
2022/10/10 08:53:10;;;;;;;;;;;13.00;99.90;;;;;;12455555;28;19926;-81
2022/10/10 08:59:12;;;;;;;;;;;13.30;99.90;;;;;;12434917;28;19929;-80
2022/10/10 09:05:16;;;;;;;;;;;13.50;99.90;;;;;;12452317;28;19925;-80
2022/10/10 09:11:29;;;;;;;;;;;13.70;99.90;;;;;;12439371;28;20266;-80
2022/10/10 09:17:34;;;;;;;;;;;14.00;99.90;;;;;;12443720;28;19932;-80
2022/10/10 09:23:39;;;;;;;;;;;14.10;99.90;;;;;;12471117;28;20357;-80
2022/10/10 09:29:47;;;;;;;;;;;14.20;99.90;;;;;;12469439;28;19925;-80
2022/10/10 09:35:50;;;;;;;;;;;14.30;99.90;;;;;;12461980;28;20455;-80
2022/10/10 09:41:51;;;;;;;;;;;14.50;99.90;;;;;;12456700;28;19925;-80
2022/10/10 09:47:54;;;;;;;;;;;14.90;99.90;;;;;;12458579;28;20321;-80
2022/10/10 09:53:55;;;;;;;;;;;15.00;99.90;;;;;;12442500;28;20491;-80
2022/10/10 09:59:57;;;;;;;;;;;15.00;99.90;;;;;;12440929;28;20460;-81
2022/10/10 10:06:08;;;;;;;;;;;15.20;99.90;;;;;;12463799;28;19933;-80
2022/10/10 10:12:10;;;;;;;;;;;15.50;99.90;;;;;;12467872;28;19925;-81
2022/10/10 10:18:24;;;;;;;;;;;15.80;99.90;;;;;;12460598;28;19929;-80
2022/10/10 10:24:34;;;;;;;;;;;16.00;99.90;;;;;;12465744;28;20412;-80
2022/10/10 10:30:37;;;;;;;;;;;16.30;99.90;;;;;;12463104;28;20389;-81
2022/10/10 10:36:47;;;;;;;;;;;16.20;99.90;;;;;;12464601;28;19933;-81
2022/10/10 10:43:07;;;;;;;;;;;16.30;99.90;;;;;;12467798;28;19929;-80
2022/10/10 10:49:13;;;;;;;;;;;16.50;99.90;;;;;;12458433;28;19925;-80
2022/10/10 10:55:25;;;;;;;;;;;16.50;99.90;;;;;;12471497;28;19932;-80
2022/10/10 11:01:35;;;;;;;;;;;16.80;99.90;;;;;;12460577;28;19926;-80
2022/10/10 11:08:15;;;;;;;;;;;17.10;99.90;;;;;;12458382;28;19933;-80
2022/10/10 11:14:35;;;;;;;;;;;17.10;99.90;;;;;;12452532;28;20667;-80
2022/10/10 11:20:46;;;;;;;;;;;17.00;99.90;;;;;;12452831;28;19933;-81
2022/10/10 11:26:51;;;;;;;;;;;17.20;99.90;;;;;;12457822;28;19925;-80
2022/10/10 11:32:56;;;;;;;;;;;17.40;99.90;;;;;;12463945;28;19930;-81
2022/10/10 11:39:04;;;;;;;;;;;17.50;99.90;;;;;;12461791;28;19936;-80
2022/10/10 11:45:18;;;;;;;;;;;17.90;99.90;;;;;;12452624;28;19940;-80
2022/10/10 11:51:28;;;;;;;;;;;18.20;99.90;;;;;;12446954;28;19925;-79
2022/10/10 11:57:32;;;;;;;;;;;18.40;99.90;;;;;;12448107;28;19926;-80
2022/10/10 12:03:34;;;;;;;;;;;18.20;99.90;;;;;;12451724;28;20400;-80
2022/10/10 12:09:38;;;;;;;;;;;18.30;99.90;;;;;;12453729;28;19932;-80
2022/10/10 12:15:40;;;;;;;;;;;18.10;99.90;;;;;;12473174;28;19929;-80
2022/10/10 12:21:59;;;;;;;;;;;18.00;99.90;;;;;;12462307;28;20055;-81
2022/10/10 12:28:02;;;;;;;;;;;18.20;99.90;;;;;;12450501;28;19926;-80
2022/10/10 12:34:10;;;;;;;;;;;18.40;99.90;;;;;;12457181;28;19932;-80
2022/10/10 12:40:11;;;;;;;;;;;18.40;99.90;;;;;;12461457;28;19925;-80
2022/10/10 12:46:16;;;;;;;;;;;18.50;99.90;;;;;;12465049;28;19929;-81
2022/10/10 12:52:21;;;;;;;;;;;18.30;99.90;;;;;;12439130;28;19976;-82
2022/10/10 12:58:24;;;;;;;;;;;18.10;99.90;;;;;;12455776;28;19925;-80
2022/10/10 13:04:28;;;;;;;;;;;17.90;99.90;;;;;;12441979;28;19933;-80
2022/10/10 13:10:31;;;;;;;;;;;17.90;99.90;;;;;;12458530;28;19925;-80
2022/10/10 13:16:41;;;;;;;;;;;17.80;99.90;;;;;;12448603;28;20583;-80
2022/10/10 13:22:43;;;;;;;;;;;17.60;99.90;;;;;;12458018;28;19933;-80
2022/10/10 13:28:49;;;;;;;;;;;17.40;99.90;;;;;;12442472;28;19925;-80
2022/10/10 13:34:52;;;;;;;;;;;17.40;99.90;;;;;;12461210;28;19936;-80
2022/10/10 13:40:54;;;;;;;;;;;17.30;99.90;;;;;;12474309;28;19929;-80
2022/10/10 13:46:56;;;;;;;;;;;17.30;99.90;;;;;;12451515;28;19929;-80
2022/10/10 13:53:18;;;;;;;;;;;17.20;99.90;;;;;;12439986;28;20889;-80
2022/10/10 13:59:20;;;;;;;;;;;17.20;99.90;;;;;;12456794;28;20373;-80
2022/10/10 14:05:27;;;;;;;;;;;17.10;99.90;;;;;;12445914;28;20442;-80
2022/10/10 14:11:30;;;;;;;;;;;17.10;99.90;;;;;;12461282;28;19932;-80
2022/10/10 14:17:31;;;;;;;;;;;17.10;99.90;;;;;;12443147;28;19925;-79
2022/10/10 14:23:34;;;;;;;;;;;17.10;99.90;;;;;;12462654;28;20141;-80
2022/10/10 14:29:35;;;;;;;;;;;17.00;99.90;;;;;;12459884;28;20269;-80
2022/10/10 14:35:37;;;;;;;;;;;16.80;99.90;;;;;;12463764;28;19932;-81
2022/10/10 14:41:39;;;;;;;;;;;16.80;99.90;;;;;;12467331;28;20408;-80
2022/10/10 14:47:41;;;;;;;;;;;16.70;99.90;;;;;;12461885;28;19932;-80
2022/10/10 14:53:43;;;;;;;;;;;16.60;99.90;;;;;;12459808;28;19926;-80
2022/10/10 15:00:06;;;;;;;;;;;16.60;99.90;;;;;;12455077;28;19952;-80
2022/10/10 15:06:09;;;;;;;;;;;16.50;99.90;;;;;;12418368;28;19929;-80
2022/10/10 15:12:11;;;;;;;;;;;16.40;99.90;;;;;;12472190;28;19967;-79
2022/10/10 15:18:13;;;;;;;;;;;16.30;99.90;;;;;;12453881;28;19929;-79
2022/10/10 15:24:35;;;;;;;;;;;16.30;99.90;;;;;;12454832;28;19925;-80
2022/10/10 15:30:37;;;;;;;;;;;16.20;99.90;;;;;;12457702;28;20266;-79
2022/10/10 15:36:44;;;;;;;;;;;16.10;99.90;;;;;;12461124;28;20000;-81
2022/10/10 15:42:46;;;;;;;;;;;16.00;99.90;;;;;;12467098;28;19926;-80
2022/10/10 15:48:48;;;;;;;;;;;16.00;99.90;;;;;;12457121;28;19925;-80
2022/10/10 15:54:49;;;;;;;;;;;15.90;99.90;;;;;;12468102;28;19932;-80
2022/10/10 16:00:52;;;;;;;;;;;15.90;99.90;;;;;;12469117;28;19925;-80
2022/10/10 16:06:54;;;;;;;;;;;15.80;99.90;;;;;;12466140;28;19933;-80
2022/10/10 16:13:16;;;;;;;;;;;15.70;99.90;;;;;;12459987;28;19926;-80
2022/10/10 16:19:17;;;;;;;;;;;15.60;99.90;;;;;;12464779;28;19925;-80
2022/10/10 16:25:19;;;;;;;;;;;15.50;99.90;;;;;;12452521;28;19925;-81
2022/10/10 16:31:23;;;;;;;;;;;15.40;99.90;;;;;;12464273;28;19933;-80
2022/10/10 16:37:25;;;;;;;;;;;15.20;99.90;;;;;;12462555;28;19925;-80
2022/10/10 16:43:27;;;;;;;;;;;15.10;99.90;;;;;;12448633;28;19925;-80
2022/10/10 16:49:28;;;;;;;;;;;15.10;99.90;;;;;;12456014;28;19925;-80
2022/10/10 16:55:36;;;;;;;;;;;15.00;99.90;;;;;;12439560;28;19925;-80
2022/10/10 17:01:38;;;;;;;;;;;14.80;99.90;;;;;;12460026;28;19925;-80
2022/10/10 17:07:40;;;;;;;;;;;14.60;99.90;;;;;;12477277;28;19925;-81
2022/10/10 17:13:42;;;;;;;;;;;14.40;99.90;;;;;;12454069;28;19961;-80
2022/10/10 17:19:44;;;;;;;;;;;14.30;99.90;;;;;;12468624;28;19936;-80
2022/10/10 17:25:45;;;;;;;;;;;14.10;99.90;;;;;;12457911;28;19929;-80
2022/10/10 17:31:47;;;;;;;;;;;14.00;99.90;;;;;;12461533;28;20390;-81
2022/10/10 17:37:49;;;;;;;;;;;13.90;99.90;;;;;;12465968;28;20266;-81
2022/10/10 17:43:51;;;;;;;;;;;13.70;99.90;;;;;;12487925;28;19925;-80
2022/10/10 17:49:53;;;;;;;;;;;13.60;99.90;;;;;;12459349;28;19932;-80
2022/10/10 17:55:54;;;;;;;;;;;13.60;99.90;;;;;;12464789;28;19925;-80
2022/10/10 18:01:56;;;;;;;;;;;13.50;99.90;;;;;;12468490;28;19941;-80
2022/10/10 18:07:58;;;;;;;;;;;13.50;99.90;;;;;;12474585;28;19932;-80
2022/10/10 18:13:59;;;;;;;;;;;13.50;99.90;;;;;;12470822;28;19951;-81
2022/10/10 18:20:01;;;;;;;;;;;13.30;99.90;;;;;;12465931;28;20024;-81
2022/10/10 18:26:05;;;;;;;;;;;13.30;99.90;;;;;;12464772;28;19925;-80
2022/10/10 18:32:07;;;;;;;;;;;13.30;99.90;;;;;;12471431;28;19930;-81
2022/10/10 18:38:09;;;;;;;;;;;13.00;99.90;;;;;;12462201;28;19935;-81
2022/10/10 18:44:12;;;;;;;;;;;12.90;99.90;;;;;;12466997;28;19929;-81
2022/10/10 18:50:14;;;;;;;;;;;12.80;99.90;;;;;;12463459;28;20389;-80
2022/10/10 18:56:20;;;;;;;;;;;12.80;99.90;;;;;;12464993;28;20432;-81
2022/10/10 19:02:23;;;;;;;;;;;12.70;99.90;;;;;;12458520;28;19925;-81
2022/10/10 19:08:25;;;;;;;;;;;12.60;99.90;;;;;;12452905;28;19932;-81
2022/10/10 19:14:27;;;;;;;;;;;12.20;99.90;;;;;;12443880;28;19972;-81
2022/10/10 19:20:29;;;;;;;;;;;12.30;99.90;;;;;;12471264;28;20277;-80
2022/10/10 19:26:32;;;;;;;;;;;12.30;99.90;;;;;;12470511;28;19941;-82
2022/10/10 19:32:34;;;;;;;;;;;12.10;99.90;;;;;;12470810;28;19933;-82
2022/10/10 19:38:40;;;;;;;;;;;12.10;99.90;;;;;;12457801;28;19936;-80
2022/10/10 19:44:41;;;;;;;;;;;12.00;99.90;;;;;;12477676;28;19925;-81
2022/10/10 19:50:43;;;;;;;;;;;11.90;99.90;;;;;;12464216;28;19925;-81
2022/10/10 19:56:45;;;;;;;;;;;11.70;99.90;;;;;;12457663;28;19948;-80
2022/10/10 20:02:47;;;;;;;;;;;11.60;99.90;;;;;;12465089;28;19932;-80
2022/10/10 20:08:49;;;;;;;;;;;11.60;99.90;;;;;;12469309;28;19925;-80
2022/10/10 20:14:50;;;;;;;;;;;11.50;99.90;;;;;;12477822;28;19925;-80
2022/10/10 20:20:54;;;;;;;;;;;11.50;99.90;;;;;;12465551;28;19933;-80
2022/10/10 20:26:56;;;;;;;;;;;11.50;99.90;;;;;;12462380;28;20289;-80
2022/10/10 20:32:58;;;;;;;;;;;11.50;99.90;;;;;;12463384;28;19930;-80
2022/10/10 20:39:01;;;;;;;;;;;11.40;99.90;;;;;;12460728;28;19925;-80
2022/10/10 20:45:03;;;;;;;;;;;11.40;99.90;;;;;;12462560;28;19932;-80
2022/10/10 20:51:11;;;;;;;;;;;11.40;99.90;;;;;;12460431;28;20059;-80
2022/10/10 20:57:13;;;;;;;;;;;11.30;99.90;;;;;;12463083;28;20343;-80
2022/10/10 21:03:15;;;;;;;;;;;11.20;99.90;;;;;;12462748;28;19940;-80
2022/10/10 21:09:17;;;;;;;;;;;11.20;99.90;;;;;;12444811;28;19925;-80
2022/10/10 21:15:18;;;;;;;;;;;11.10;99.90;;;;;;12442110;28;19929;-80
2022/10/10 21:21:20;;;;;;;;;;;11.00;99.90;;;;;;12454101;28;19932;-80
2022/10/10 21:27:22;;;;;;;;;;;11.00;99.90;;;;;;12458868;28;19929;-81
2022/10/10 21:33:24;;;;;;;;;;;10.90;99.90;;;;;;12422546;28;19932;-81
2022/10/10 21:39:25;;;;;;;;;;;10.80;99.90;;;;;;12410499;28;20297;-82
2022/10/10 21:45:27;;;;;;;;;;;10.80;99.90;;;;;;12403730;28;20347;-80
2022/10/10 21:51:29;;;;;;;;;;;10.80;99.90;;;;;;12410355;28;19934;-80
2022/10/10 21:57:30;;;;;;;;;;;10.80;99.90;;;;;;12404873;28;19926;-80
2022/10/10 22:03:32;;;;;;;;;;;10.80;99.90;;;;;;12424552;28;19929;-80
2022/10/10 22:09:34;;;;;;;;;;;10.60;99.90;;;;;;12416303;28;19941;-81
2022/10/10 22:15:36;;;;;;;;;;;10.60;99.90;;;;;;12430698;28;19933;-80
2022/10/10 22:21:39;;;;;;;;;;;10.50;99.90;;;;;;12417549;28;19933;-80
2022/10/10 22:27:40;;;;;;;;;;;10.40;99.90;;;;;;12420689;28;20301;-81
2022/10/10 22:33:42;;;;;;;;;;;10.30;99.90;;;;;;12479806;28;19929;-80
2022/10/10 22:39:44;;;;;;;;;;;10.30;99.90;;;;;;12474099;28;19925;-80
2022/10/10 22:45:45;;;;;;;;;;;10.30;99.90;;;;;;12475658;28;19933;-80
2022/10/10 22:51:48;;;;;;;;;;;10.30;99.90;;;;;;12475531;28;20305;-80
2022/10/10 22:57:50;;;;;;;;;;;10.10;99.90;;;;;;12472186;28;20382;-81
2022/10/10 23:03:55;;;;;;;;;;;10.10;99.90;;;;;;12468229;28;19926;-80
2022/10/10 23:09:57;;;;;;;;;;;10.00;99.90;;;;;;12454000;28;19926;-80
2022/10/10 23:15:58;;;;;;;;;;;10.00;99.90;;;;;;12460039;28;20402;-80
2022/10/10 23:22:00;;;;;;;;;;;10.00;99.90;;;;;;12446353;28;19929;-81
2022/10/10 23:28:04;;;;;;;;;;;10.00;99.90;;;;;;12481667;28;21602;-80
2022/10/10 23:34:06;;;;;;;;;;;10.00;99.90;;;;;;12467877;28;19945;-81
2022/10/10 23:40:08;;;;;;;;;;;10.00;99.90;;;;;;12455051;28;19925;-80
2022/10/10 23:46:10;;;;;;;;;;;9.90;99.90;;;;;;12414761;28;19936;-81
2022/10/10 23:52:11;;;;;;;;;;;9.90;99.90;;;;;;12454899;28;20377;-80
2022/10/10 23:58:13;;;;;;;;;;;9.80;99.90;;;;;;12447856;28;19929;-80
